sensor_id;sensor_type;location;lat;lon;timestamp;P1;durP1;ratioP1;P2;durP2;ratioP2
68577;SDS011;61668;45.388;11.784;2023-03-19T00:00:06;33.70;;;20.70;;
68577;SDS011;61668;45.388;11.784;2023-03-19T00:02:33;42.40;;;21.50;;
68577;SDS011;61668;45.388;11.784;2023-03-19T00:05:00;38.20;;;21.70;;
68577;SDS011;61668;45.388;11.784;2023-03-19T00:07:27;37.10;;;20.00;;
68577;SDS011;61668;45.388;11.784;2023-03-19T00:09:53;31.70;;;18.40;;
68577;SDS011;61668;45.388;11.784;2023-03-19T00:12:18;35.90;;;19.20;;
68577;SDS011;61668;45.388;11.784;2023-03-19T00:14:45;36.00;;;19.30;;
68577;SDS011;61668;45.388;11.784;2023-03-19T00:17:11;34.50;;;19.00;;
68577;SDS011;61668;45.388;11.784;2023-03-19T00:19:37;32.10;;;20.20;;
68577;SDS011;61668;45.388;11.784;2023-03-19T00:22:03;31.40;;;17.40;;
68577;SDS011;61668;45.388;11.784;2023-03-19T00:24:29;31.70;;;20.00;;
68577;SDS011;61668;45.388;11.784;2023-03-19T00:26:55;31.70;;;18.90;;
68577;SDS011;61668;45.388;11.784;2023-03-19T00:29:21;35.00;;;20.80;;
68577;SDS011;61668;45.388;11.784;2023-03-19T00:31:48;34.40;;;20.80;;
68577;SDS011;61668;45.388;11.784;2023-03-19T00:34:14;34.50;;;19.10;;
68577;SDS011;61668;45.388;11.784;2023-03-19T00:36:43;34.00;;;18.40;;
68577;SDS011;61668;45.388;11.784;2023-03-19T00:39:09;30.40;;;18.10;;
68577;SDS011;61668;45.388;11.784;2023-03-19T00:41:35;33.00;;;19.10;;
68577;SDS011;61668;45.388;11.784;2023-03-19T00:44:02;29.70;;;18.30;;
68577;SDS011;61668;45.388;11.784;2023-03-19T00:46:28;32.40;;;18.70;;
68577;SDS011;61668;45.388;11.784;2023-03-19T00:48:54;32.80;;;18.30;;
68577;SDS011;61668;45.388;11.784;2023-03-19T00:51:21;32.30;;;19.00;;
68577;SDS011;61668;45.388;11.784;2023-03-19T00:53:48;33.10;;;18.90;;
68577;SDS011;61668;45.388;11.784;2023-03-19T00:56:14;32.20;;;18.90;;
68577;SDS011;61668;45.388;11.784;2023-03-19T00:58:43;31.60;;;19.10;;
68577;SDS011;61668;45.388;11.784;2023-03-19T01:01:11;35.00;;;18.30;;
68577;SDS011;61668;45.388;11.784;2023-03-19T01:03:39;31.40;;;18.40;;
68577;SDS011;61668;45.388;11.784;2023-03-19T01:06:05;29.00;;;18.60;;
68577;SDS011;61668;45.388;11.784;2023-03-19T01:08:32;33.40;;;20.30;;
68577;SDS011;61668;45.388;11.784;2023-03-19T01:11:27;34.90;;;19.70;;
68577;SDS011;61668;45.388;11.784;2023-03-19T01:13:53;33.40;;;20.70;;
68577;SDS011;61668;45.388;11.784;2023-03-19T01:16:18;35.50;;;21.10;;
68577;SDS011;61668;45.388;11.784;2023-03-19T01:18:44;40.80;;;21.60;;
68577;SDS011;61668;45.388;11.784;2023-03-19T01:21:10;37.20;;;21.30;;
68577;SDS011;61668;45.388;11.784;2023-03-19T01:23:36;44.00;;;23.60;;
68577;SDS011;61668;45.388;11.784;2023-03-19T01:26:02;35.60;;;21.40;;
68577;SDS011;61668;45.388;11.784;2023-03-19T01:28:27;35.40;;;20.20;;
68577;SDS011;61668;45.388;11.784;2023-03-19T01:30:57;34.40;;;20.30;;
68577;SDS011;61668;45.388;11.784;2023-03-19T01:33:25;33.00;;;20.30;;
68577;SDS011;61668;45.388;11.784;2023-03-19T01:35:51;33.50;;;19.30;;
68577;SDS011;61668;45.388;11.784;2023-03-19T01:38:16;31.90;;;19.90;;
68577;SDS011;61668;45.388;11.784;2023-03-19T01:40:44;35.20;;;20.10;;
68577;SDS011;61668;45.388;11.784;2023-03-19T01:43:20;33.20;;;19.80;;
68577;SDS011;61668;45.388;11.784;2023-03-19T01:45:50;32.50;;;20.90;;
68577;SDS011;61668;45.388;11.784;2023-03-19T01:48:50;32.80;;;19.10;;
68577;SDS011;61668;45.388;11.784;2023-03-19T01:51:22;30.50;;;19.10;;
68577;SDS011;61668;45.388;11.784;2023-03-19T01:53:54;31.20;;;20.90;;
68577;SDS011;61668;45.388;11.784;2023-03-19T01:56:29;32.30;;;19.70;;
68577;SDS011;61668;45.388;11.784;2023-03-19T01:59:02;33.00;;;20.10;;
68577;SDS011;61668;45.388;11.784;2023-03-19T02:01:32;30.50;;;19.30;;
68577;SDS011;61668;45.388;11.784;2023-03-19T02:04:01;28.60;;;19.30;;
68577;SDS011;61668;45.388;11.784;2023-03-19T02:06:28;31.60;;;19.20;;
68577;SDS011;61668;45.388;11.784;2023-03-19T02:08:55;30.40;;;18.70;;
68577;SDS011;61668;45.388;11.784;2023-03-19T02:11:22;30.30;;;19.00;;
68577;SDS011;61668;45.388;11.784;2023-03-19T02:13:48;31.80;;;20.10;;
68577;SDS011;61668;45.388;11.784;2023-03-19T02:16:14;32.50;;;19.70;;
68577;SDS011;61668;45.388;11.784;2023-03-19T02:18:41;31.50;;;19.40;;
68577;SDS011;61668;45.388;11.784;2023-03-19T02:21:10;32.70;;;19.00;;
68577;SDS011;61668;45.388;11.784;2023-03-19T02:26:28;31.10;;;18.10;;
68577;SDS011;61668;45.388;11.784;2023-03-19T02:28:55;38.10;;;21.30;;
68577;SDS011;61668;45.388;11.784;2023-03-19T02:31:22;29.80;;;18.20;;
68577;SDS011;61668;45.388;11.784;2023-03-19T02:37:04;30.50;;;18.60;;
68577;SDS011;61668;45.388;11.784;2023-03-19T02:39:49;27.50;;;17.70;;
68577;SDS011;61668;45.388;11.784;2023-03-19T02:42:25;31.00;;;18.90;;
68577;SDS011;61668;45.388;11.784;2023-03-19T02:44:52;30.80;;;18.70;;
68577;SDS011;61668;45.388;11.784;2023-03-19T02:47:18;30.40;;;18.50;;
68577;SDS011;61668;45.388;11.784;2023-03-19T02:49:44;26.60;;;16.80;;
68577;SDS011;61668;45.388;11.784;2023-03-19T02:52:10;30.10;;;17.90;;
68577;SDS011;61668;45.388;11.784;2023-03-19T02:54:36;29.10;;;18.60;;
68577;SDS011;61668;45.388;11.784;2023-03-19T02:57:02;31.00;;;18.00;;
68577;SDS011;61668;45.388;11.784;2023-03-19T02:59:28;31.10;;;19.00;;
68577;SDS011;61668;45.388;11.784;2023-03-19T03:01:54;28.80;;;18.60;;
68577;SDS011;61668;45.388;11.784;2023-03-19T03:04:20;26.60;;;18.10;;
68577;SDS011;61668;45.388;11.784;2023-03-19T03:06:46;32.40;;;19.90;;
68577;SDS011;61668;45.388;11.784;2023-03-19T03:09:12;28.60;;;17.50;;
68577;SDS011;61668;45.388;11.784;2023-03-19T03:11:39;31.50;;;18.30;;
68577;SDS011;61668;45.388;11.784;2023-03-19T03:14:08;30.20;;;16.90;;
68577;SDS011;61668;45.388;11.784;2023-03-19T03:16:34;27.10;;;17.00;;
68577;SDS011;61668;45.388;11.784;2023-03-19T03:19:00;30.50;;;18.90;;
68577;SDS011;61668;45.388;11.784;2023-03-19T03:21:26;32.10;;;18.60;;
68577;SDS011;61668;45.388;11.784;2023-03-19T03:23:52;32.20;;;19.60;;
68577;SDS011;61668;45.388;11.784;2023-03-19T03:26:18;31.40;;;19.00;;
68577;SDS011;61668;45.388;11.784;2023-03-19T03:28:44;33.80;;;18.70;;
68577;SDS011;61668;45.388;11.784;2023-03-19T03:31:10;33.60;;;17.50;;
68577;SDS011;61668;45.388;11.784;2023-03-19T03:33:36;34.90;;;20.80;;
68577;SDS011;61668;45.388;11.784;2023-03-19T03:36:02;34.40;;;19.80;;
68577;SDS011;61668;45.388;11.784;2023-03-19T03:38:28;32.70;;;20.20;;
68577;SDS011;61668;45.388;11.784;2023-03-19T03:40:53;35.20;;;19.00;;
68577;SDS011;61668;45.388;11.784;2023-03-19T03:43:20;37.30;;;20.00;;
68577;SDS011;61668;45.388;11.784;2023-03-19T03:45:49;30.80;;;21.00;;
68577;SDS011;61668;45.388;11.784;2023-03-19T03:48:15;33.40;;;21.30;;
68577;SDS011;61668;45.388;11.784;2023-03-19T03:50:41;31.20;;;19.50;;
68577;SDS011;61668;45.388;11.784;2023-03-19T03:53:07;33.30;;;20.10;;
68577;SDS011;61668;45.388;11.784;2023-03-19T03:55:34;34.90;;;19.90;;
68577;SDS011;61668;45.388;11.784;2023-03-19T03:58:01;32.00;;;20.10;;
68577;SDS011;61668;45.388;11.784;2023-03-19T04:00:27;30.20;;;20.10;;
68577;SDS011;61668;45.388;11.784;2023-03-19T04:02:53;34.50;;;20.90;;
68577;SDS011;61668;45.388;11.784;2023-03-19T04:05:18;33.90;;;19.40;;
68577;SDS011;61668;45.388;11.784;2023-03-19T04:07:44;33.10;;;20.40;;
68577;SDS011;61668;45.388;11.784;2023-03-19T04:10:11;33.50;;;20.30;;
68577;SDS011;61668;45.388;11.784;2023-03-19T04:12:39;34.70;;;20.10;;
68577;SDS011;61668;45.388;11.784;2023-03-19T04:15:08;32.10;;;19.40;;
68577;SDS011;61668;45.388;11.784;2023-03-19T04:17:35;32.50;;;21.20;;
68577;SDS011;61668;45.388;11.784;2023-03-19T04:20:03;34.30;;;20.40;;
68577;SDS011;61668;45.388;11.784;2023-03-19T04:22:29;33.70;;;19.20;;
68577;SDS011;61668;45.388;11.784;2023-03-19T04:24:56;34.10;;;20.20;;
68577;SDS011;61668;45.388;11.784;2023-03-19T04:27:22;32.20;;;19.60;;
68577;SDS011;61668;45.388;11.784;2023-03-19T04:29:48;34.00;;;20.30;;
68577;SDS011;61668;45.388;11.784;2023-03-19T04:32:13;35.10;;;20.30;;
68577;SDS011;61668;45.388;11.784;2023-03-19T04:34:39;34.50;;;19.00;;
68577;SDS011;61668;45.388;11.784;2023-03-19T04:37:06;33.90;;;19.80;;
68577;SDS011;61668;45.388;11.784;2023-03-19T04:39:35;35.30;;;20.20;;
68577;SDS011;61668;45.388;11.784;2023-03-19T04:42:02;35.60;;;21.10;;
68577;SDS011;61668;45.388;11.784;2023-03-19T04:44:29;33.30;;;21.00;;
68577;SDS011;61668;45.388;11.784;2023-03-19T04:46:55;36.50;;;21.70;;
68577;SDS011;61668;45.388;11.784;2023-03-19T04:49:21;35.10;;;21.80;;
68577;SDS011;61668;45.388;11.784;2023-03-19T04:51:48;35.70;;;21.50;;
68577;SDS011;61668;45.388;11.784;2023-03-19T04:54:15;32.50;;;19.20;;
68577;SDS011;61668;45.388;11.784;2023-03-19T04:56:41;35.40;;;21.10;;
68577;SDS011;61668;45.388;11.784;2023-03-19T04:59:06;38.10;;;21.50;;
68577;SDS011;61668;45.388;11.784;2023-03-19T05:01:32;33.30;;;20.20;;
68577;SDS011;61668;45.388;11.784;2023-03-19T05:03:58;31.80;;;22.20;;
68577;SDS011;61668;45.388;11.784;2023-03-19T05:06:24;37.40;;;20.60;;
68577;SDS011;61668;45.388;11.784;2023-03-19T05:08:51;36.70;;;22.70;;
68577;SDS011;61668;45.388;11.784;2023-03-19T05:11:17;36.60;;;21.50;;
68577;SDS011;61668;45.388;11.784;2023-03-19T05:13:43;37.20;;;21.10;;
68577;SDS011;61668;45.388;11.784;2023-03-19T05:16:10;35.20;;;22.00;;
68577;SDS011;61668;45.388;11.784;2023-03-19T05:18:37;37.60;;;22.90;;
68577;SDS011;61668;45.388;11.784;2023-03-19T05:21:04;35.80;;;21.20;;
68577;SDS011;61668;45.388;11.784;2023-03-19T05:23:30;33.30;;;21.50;;
68577;SDS011;61668;45.388;11.784;2023-03-19T05:25:59;35.70;;;21.60;;
68577;SDS011;61668;45.388;11.784;2023-03-19T05:28:26;32.40;;;21.00;;
68577;SDS011;61668;45.388;11.784;2023-03-19T05:30:52;35.90;;;20.10;;
68577;SDS011;61668;45.388;11.784;2023-03-19T05:33:18;32.80;;;19.60;;
68577;SDS011;61668;45.388;11.784;2023-03-19T05:35:44;35.40;;;21.40;;
68577;SDS011;61668;45.388;11.784;2023-03-19T05:38:10;34.60;;;21.70;;
68577;SDS011;61668;45.388;11.784;2023-03-19T05:40:36;35.70;;;21.50;;
68577;SDS011;61668;45.388;11.784;2023-03-19T05:43:02;34.60;;;20.60;;
68577;SDS011;61668;45.388;11.784;2023-03-19T05:45:27;33.20;;;20.10;;
68577;SDS011;61668;45.388;11.784;2023-03-19T05:47:53;32.40;;;20.50;;
68577;SDS011;61668;45.388;11.784;2023-03-19T05:50:19;34.40;;;22.10;;
68577;SDS011;61668;45.388;11.784;2023-03-19T05:52:44;32.70;;;20.60;;
68577;SDS011;61668;45.388;11.784;2023-03-19T05:55:10;33.10;;;19.50;;
68577;SDS011;61668;45.388;11.784;2023-03-19T05:57:36;34.90;;;20.50;;
68577;SDS011;61668;45.388;11.784;2023-03-19T06:00:03;37.40;;;23.40;;
68577;SDS011;61668;45.388;11.784;2023-03-19T06:02:31;38.30;;;22.10;;
68577;SDS011;61668;45.388;11.784;2023-03-19T06:04:57;38.60;;;24.40;;
68577;SDS011;61668;45.388;11.784;2023-03-19T06:07:23;37.20;;;23.50;;
68577;SDS011;61668;45.388;11.784;2023-03-19T06:09:49;36.10;;;24.50;;
68577;SDS011;61668;45.388;11.784;2023-03-19T06:12:16;36.80;;;22.60;;
68577;SDS011;61668;45.388;11.784;2023-03-19T06:14:41;37.20;;;22.30;;
68577;SDS011;61668;45.388;11.784;2023-03-19T06:17:07;35.70;;;21.90;;
68577;SDS011;61668;45.388;11.784;2023-03-19T06:19:34;34.10;;;23.60;;
68577;SDS011;61668;45.388;11.784;2023-03-19T06:21:59;37.50;;;23.40;;
68577;SDS011;61668;45.388;11.784;2023-03-19T06:24:25;38.20;;;24.50;;
68577;SDS011;61668;45.388;11.784;2023-03-19T06:26:51;39.90;;;25.40;;
68577;SDS011;61668;45.388;11.784;2023-03-19T06:29:16;37.60;;;25.10;;
68577;SDS011;61668;45.388;11.784;2023-03-19T06:31:42;41.00;;;26.80;;
68577;SDS011;61668;45.388;11.784;2023-03-19T06:34:08;43.80;;;27.50;;
68577;SDS011;61668;45.388;11.784;2023-03-19T06:36:34;47.50;;;28.60;;
68577;SDS011;61668;45.388;11.784;2023-03-19T06:39:00;38.30;;;27.00;;
68577;SDS011;61668;45.388;11.784;2023-03-19T06:41:25;40.30;;;27.10;;
68577;SDS011;61668;45.388;11.784;2023-03-19T06:43:51;41.30;;;27.30;;
68577;SDS011;61668;45.388;11.784;2023-03-19T06:46:17;43.20;;;26.40;;
68577;SDS011;61668;45.388;11.784;2023-03-19T06:48:43;42.60;;;25.90;;
68577;SDS011;61668;45.388;11.784;2023-03-19T06:51:08;38.90;;;27.50;;
68577;SDS011;61668;45.388;11.784;2023-03-19T06:53:34;41.40;;;27.60;;
68577;SDS011;61668;45.388;11.784;2023-03-19T06:56:00;40.60;;;26.20;;
68577;SDS011;61668;45.388;11.784;2023-03-19T06:58:26;40.80;;;26.80;;
68577;SDS011;61668;45.388;11.784;2023-03-19T07:00:51;36.70;;;25.40;;
68577;SDS011;61668;45.388;11.784;2023-03-19T07:03:17;40.50;;;26.30;;
68577;SDS011;61668;45.388;11.784;2023-03-19T07:05:43;41.00;;;28.30;;
68577;SDS011;61668;45.388;11.784;2023-03-19T07:08:08;41.90;;;27.00;;
68577;SDS011;61668;45.388;11.784;2023-03-19T07:10:39;41.60;;;27.50;;
68577;SDS011;61668;45.388;11.784;2023-03-19T07:13:05;42.30;;;27.10;;
68577;SDS011;61668;45.388;11.784;2023-03-19T07:15:31;41.90;;;27.40;;
68577;SDS011;61668;45.388;11.784;2023-03-19T07:17:57;43.60;;;28.40;;
68577;SDS011;61668;45.388;11.784;2023-03-19T07:20:23;38.40;;;27.60;;
68577;SDS011;61668;45.388;11.784;2023-03-19T07:22:52;41.30;;;28.00;;
68577;SDS011;61668;45.388;11.784;2023-03-19T07:25:19;43.20;;;27.70;;
68577;SDS011;61668;45.388;11.784;2023-03-19T07:27:45;43.50;;;27.40;;
68577;SDS011;61668;45.388;11.784;2023-03-19T07:30:11;41.10;;;27.50;;
68577;SDS011;61668;45.388;11.784;2023-03-19T07:32:38;42.60;;;27.40;;
68577;SDS011;61668;45.388;11.784;2023-03-19T07:35:05;38.40;;;26.20;;
68577;SDS011;61668;45.388;11.784;2023-03-19T07:37:32;42.60;;;27.00;;
68577;SDS011;61668;45.388;11.784;2023-03-19T07:39:58;39.90;;;26.40;;
68577;SDS011;61668;45.388;11.784;2023-03-19T07:42:24;40.90;;;28.30;;
68577;SDS011;61668;45.388;11.784;2023-03-19T07:44:50;42.20;;;27.40;;
68577;SDS011;61668;45.388;11.784;2023-03-19T07:47:15;41.90;;;26.30;;
68577;SDS011;61668;45.388;11.784;2023-03-19T07:49:41;39.50;;;27.80;;
68577;SDS011;61668;45.388;11.784;2023-03-19T07:52:08;42.20;;;27.40;;
68577;SDS011;61668;45.388;11.784;2023-03-19T07:54:34;41.00;;;27.50;;
68577;SDS011;61668;45.388;11.784;2023-03-19T07:57:00;43.20;;;26.60;;
68577;SDS011;61668;45.388;11.784;2023-03-19T07:59:26;43.60;;;26.10;;
68577;SDS011;61668;45.388;11.784;2023-03-19T08:01:52;39.80;;;25.70;;
68577;SDS011;61668;45.388;11.784;2023-03-19T08:04:18;40.60;;;26.10;;
68577;SDS011;61668;45.388;11.784;2023-03-19T08:06:43;39.20;;;24.80;;
68577;SDS011;61668;45.388;11.784;2023-03-19T08:09:09;38.50;;;24.40;;
68577;SDS011;61668;45.388;11.784;2023-03-19T08:11:35;36.10;;;23.40;;
68577;SDS011;61668;45.388;11.784;2023-03-19T08:14:01;34.10;;;22.70;;
68577;SDS011;61668;45.388;11.784;2023-03-19T08:16:27;36.20;;;23.90;;
68577;SDS011;61668;45.388;11.784;2023-03-19T08:18:53;34.40;;;23.50;;
68577;SDS011;61668;45.388;11.784;2023-03-19T08:21:19;33.20;;;22.20;;
68577;SDS011;61668;45.388;11.784;2023-03-19T08:23:45;35.10;;;21.80;;
68577;SDS011;61668;45.388;11.784;2023-03-19T08:26:10;34.40;;;22.00;;
68577;SDS011;61668;45.388;11.784;2023-03-19T08:28:36;34.00;;;22.00;;
68577;SDS011;61668;45.388;11.784;2023-03-19T08:31:07;31.90;;;20.20;;
68577;SDS011;61668;45.388;11.784;2023-03-19T08:33:34;33.10;;;20.90;;
68577;SDS011;61668;45.388;11.784;2023-03-19T08:36:08;30.30;;;20.00;;
68577;SDS011;61668;45.388;11.784;2023-03-19T08:38:36;30.60;;;19.60;;
68577;SDS011;61668;45.388;11.784;2023-03-19T08:41:02;26.20;;;18.00;;
68577;SDS011;61668;45.388;11.784;2023-03-19T08:43:31;27.80;;;17.90;;
68577;SDS011;61668;45.388;11.784;2023-03-19T08:45:59;26.80;;;17.90;;
68577;SDS011;61668;45.388;11.784;2023-03-19T08:48:25;28.00;;;18.70;;
68577;SDS011;61668;45.388;11.784;2023-03-19T08:50:53;28.60;;;19.70;;
68577;SDS011;61668;45.388;11.784;2023-03-19T08:53:20;27.60;;;18.20;;
68577;SDS011;61668;45.388;11.784;2023-03-19T08:55:52;26.30;;;18.00;;
68577;SDS011;61668;45.388;11.784;2023-03-19T08:58:19;25.60;;;17.20;;
68577;SDS011;61668;45.388;11.784;2023-03-19T09:00:45;25.40;;;17.50;;
68577;SDS011;61668;45.388;11.784;2023-03-19T09:03:12;23.40;;;15.40;;
68577;SDS011;61668;45.388;11.784;2023-03-19T09:05:38;23.70;;;17.20;;
68577;SDS011;61668;45.388;11.784;2023-03-19T09:08:04;24.20;;;17.40;;
68577;SDS011;61668;45.388;11.784;2023-03-19T09:10:31;24.40;;;16.10;;
68577;SDS011;61668;45.388;11.784;2023-03-19T09:12:57;22.40;;;14.90;;
68577;SDS011;61668;45.388;11.784;2023-03-19T09:15:23;23.50;;;15.10;;
68577;SDS011;61668;45.388;11.784;2023-03-19T09:17:49;21.40;;;13.70;;
68577;SDS011;61668;45.388;11.784;2023-03-19T09:20:15;21.20;;;14.20;;
68577;SDS011;61668;45.388;11.784;2023-03-19T09:22:41;22.10;;;14.60;;
68577;SDS011;61668;45.388;11.784;2023-03-19T09:25:07;24.30;;;15.40;;
68577;SDS011;61668;45.388;11.784;2023-03-19T09:27:34;22.10;;;15.60;;
68577;SDS011;61668;45.388;11.784;2023-03-19T09:30:00;22.70;;;15.10;;
68577;SDS011;61668;45.388;11.784;2023-03-19T09:32:26;24.30;;;14.80;;
68577;SDS011;61668;45.388;11.784;2023-03-19T09:34:52;22.80;;;15.30;;
68577;SDS011;61668;45.388;11.784;2023-03-19T09:37:17;19.80;;;12.90;;
68577;SDS011;61668;45.388;11.784;2023-03-19T09:39:43;18.90;;;13.40;;
68577;SDS011;61668;45.388;11.784;2023-03-19T09:45:03;19.30;;;13.50;;
68577;SDS011;61668;45.388;11.784;2023-03-19T09:47:32;18.10;;;12.50;;
68577;SDS011;61668;45.388;11.784;2023-03-19T09:50:33;20.00;;;12.70;;
68577;SDS011;61668;45.388;11.784;2023-03-19T09:55:43;19.80;;;11.40;;
68577;SDS011;61668;45.388;11.784;2023-03-19T09:58:40;20.60;;;11.90;;
68577;SDS011;61668;45.388;11.784;2023-03-19T10:01:36;18.00;;;12.00;;
68577;SDS011;61668;45.388;11.784;2023-03-19T10:07:06;20.20;;;13.30;;
68577;SDS011;61668;45.388;11.784;2023-03-19T10:10:06;20.30;;;16.30;;
68577;SDS011;61668;45.388;11.784;2023-03-19T10:15:52;18.00;;;12.00;;
68577;SDS011;61668;45.388;11.784;2023-03-19T10:18:20;19.60;;;12.10;;
68577;SDS011;61668;45.388;11.784;2023-03-19T10:21:15;18.70;;;11.60;;
68577;SDS011;61668;45.388;11.784;2023-03-19T10:26:33;18.50;;;11.60;;
68577;SDS011;61668;45.388;11.784;2023-03-19T10:29:11;17.70;;;11.00;;
68577;SDS011;61668;45.388;11.784;2023-03-19T10:31:48;16.10;;;10.00;;
68577;SDS011;61668;45.388;11.784;2023-03-19T10:34:34;18.60;;;11.90;;
68577;SDS011;61668;45.388;11.784;2023-03-19T10:39:48;20.20;;;12.10;;
68577;SDS011;61668;45.388;11.784;2023-03-19T10:45:19;18.80;;;11.60;;
68577;SDS011;61668;45.388;11.784;2023-03-19T10:47:57;18.60;;;11.30;;
68577;SDS011;61668;45.388;11.784;2023-03-19T10:50:33;17.00;;;10.80;;
68577;SDS011;61668;45.388;11.784;2023-03-19T10:53:25;17.40;;;10.70;;
68577;SDS011;61668;45.388;11.784;2023-03-19T10:56:04;20.60;;;11.30;;
68577;SDS011;61668;45.388;11.784;2023-03-19T10:58:34;17.60;;;11.30;;
68577;SDS011;61668;45.388;11.784;2023-03-19T11:01:05;19.10;;;12.20;;
68577;SDS011;61668;45.388;11.784;2023-03-19T11:03:48;17.00;;;11.30;;
68577;SDS011;61668;45.388;11.784;2023-03-19T11:06:18;19.20;;;11.90;;
68577;SDS011;61668;45.388;11.784;2023-03-19T11:09:00;17.50;;;10.50;;
68577;SDS011;61668;45.388;11.784;2023-03-19T11:11:52;17.20;;;11.30;;
68577;SDS011;61668;45.388;11.784;2023-03-19T11:14:37;16.80;;;10.30;;
68577;SDS011;61668;45.388;11.784;2023-03-19T11:17:23;21.80;;;11.10;;
68577;SDS011;61668;45.388;11.784;2023-03-19T11:19:57;18.50;;;9.90;;
68577;SDS011;61668;45.388;11.784;2023-03-19T11:22:24;18.00;;;10.70;;
68577;SDS011;61668;45.388;11.784;2023-03-19T11:24:56;17.10;;;10.30;;
68577;SDS011;61668;45.388;11.784;2023-03-19T11:27:34;16.30;;;9.70;;
68577;SDS011;61668;45.388;11.784;2023-03-19T11:30:02;16.70;;;9.50;;
68577;SDS011;61668;45.388;11.784;2023-03-19T11:35:41;20.70;;;9.90;;
68577;SDS011;61668;45.388;11.784;2023-03-19T11:38:38;17.20;;;10.00;;
68577;SDS011;61668;45.388;11.784;2023-03-19T11:44:04;17.30;;;10.10;;
68577;SDS011;61668;45.388;11.784;2023-03-19T11:46:43;17.60;;;10.90;;
68577;SDS011;61668;45.388;11.784;2023-03-19T11:56:00;17.20;;;10.20;;
68577;SDS011;61668;45.388;11.784;2023-03-19T12:07:21;20.40;;;11.40;;
68577;SDS011;61668;45.388;11.784;2023-03-19T12:10:14;22.70;;;12.10;;
68577;SDS011;61668;45.388;11.784;2023-03-19T12:16:07;20.50;;;12.20;;
68577;SDS011;61668;45.388;11.784;2023-03-19T12:22:13;18.90;;;11.10;;
68577;SDS011;61668;45.388;11.784;2023-03-19T12:27:40;17.30;;;10.40;;
68577;SDS011;61668;45.388;11.784;2023-03-19T12:35:58;17.40;;;10.20;;
68577;SDS011;61668;45.388;11.784;2023-03-19T12:38:40;17.80;;;10.90;;
68577;SDS011;61668;45.388;11.784;2023-03-19T12:41:12;18.30;;;10.30;;
68577;SDS011;61668;45.388;11.784;2023-03-19T12:46:41;22.30;;;10.30;;
68577;SDS011;61668;45.388;11.784;2023-03-19T12:49:21;16.20;;;9.90;;
68577;SDS011;61668;45.388;11.784;2023-03-19T12:51:58;17.10;;;10.10;;
68577;SDS011;61668;45.388;11.784;2023-03-19T12:54:40;17.20;;;10.10;;
68577;SDS011;61668;45.388;11.784;2023-03-19T12:57:20;16.40;;;8.80;;
68577;SDS011;61668;45.388;11.784;2023-03-19T13:05:34;17.20;;;8.80;;
68577;SDS011;61668;45.388;11.784;2023-03-19T13:11:14;19.20;;;9.70;;
68577;SDS011;61668;45.388;11.784;2023-03-19T13:14:00;16.70;;;8.40;;
68577;SDS011;61668;45.388;11.784;2023-03-19T13:17:13;17.70;;;9.10;;
68577;SDS011;61668;45.388;11.784;2023-03-19T13:19:46;16.20;;;9.20;;
68577;SDS011;61668;45.388;11.784;2023-03-19T13:22:25;18.60;;;10.10;;
68577;SDS011;61668;45.388;11.784;2023-03-19T13:24:54;18.80;;;11.10;;
68577;SDS011;61668;45.388;11.784;2023-03-19T13:27:31;17.80;;;9.40;;
68577;SDS011;61668;45.388;11.784;2023-03-19T13:35:33;18.40;;;10.00;;
68577;SDS011;61668;45.388;11.784;2023-03-19T13:44:17;18.80;;;8.80;;
68577;SDS011;61668;45.388;11.784;2023-03-19T13:46:44;18.40;;;9.60;;
68577;SDS011;61668;45.388;11.784;2023-03-19T13:49:35;17.10;;;9.40;;
68577;SDS011;61668;45.388;11.784;2023-03-19T13:54:52;18.10;;;10.00;;
68577;SDS011;61668;45.388;11.784;2023-03-19T13:57:33;18.10;;;9.90;;
68577;SDS011;61668;45.388;11.784;2023-03-19T14:03:25;20.30;;;9.70;;
68577;SDS011;61668;45.388;11.784;2023-03-19T14:05:55;16.60;;;9.20;;
68577;SDS011;61668;45.388;11.784;2023-03-19T14:08:28;19.10;;;10.50;;
68577;SDS011;61668;45.388;11.784;2023-03-19T14:11:00;19.20;;;9.20;;
68577;SDS011;61668;45.388;11.784;2023-03-19T14:13:33;16.50;;;9.40;;
68577;SDS011;61668;45.388;11.784;2023-03-19T14:16:24;18.10;;;9.30;;
68577;SDS011;61668;45.388;11.784;2023-03-19T14:19:00;18.60;;;9.30;;
68577;SDS011;61668;45.388;11.784;2023-03-19T14:21:42;18.50;;;9.90;;
68577;SDS011;61668;45.388;11.784;2023-03-19T14:27:12;16.50;;;8.00;;
68577;SDS011;61668;45.388;11.784;2023-03-19T14:29:42;18.20;;;9.10;;
68577;SDS011;61668;45.388;11.784;2023-03-19T14:32:16;15.70;;;8.60;;
68577;SDS011;61668;45.388;11.784;2023-03-19T14:34:44;14.20;;;7.70;;
68577;SDS011;61668;45.388;11.784;2023-03-19T14:37:25;15.30;;;7.60;;
68577;SDS011;61668;45.388;11.784;2023-03-19T14:40:26;15.80;;;8.20;;
68577;SDS011;61668;45.388;11.784;2023-03-19T14:43:10;15.20;;;7.70;;
68577;SDS011;61668;45.388;11.784;2023-03-19T14:53:45;15.90;;;7.40;;
68577;SDS011;61668;45.388;11.784;2023-03-19T14:56:33;21.50;;;7.90;;
68577;SDS011;61668;45.388;11.784;2023-03-19T14:59:00;16.00;;;8.20;;
68577;SDS011;61668;45.388;11.784;2023-03-19T15:01:33;16.80;;;8.50;;
68577;SDS011;61668;45.388;11.784;2023-03-19T15:04:08;16.90;;;8.90;;
68577;SDS011;61668;45.388;11.784;2023-03-19T15:06:40;15.50;;;7.80;;
68577;SDS011;61668;45.388;11.784;2023-03-19T15:09:26;16.50;;;8.50;;
68577;SDS011;61668;45.388;11.784;2023-03-19T15:17:42;14.90;;;7.70;;
68577;SDS011;61668;45.388;11.784;2023-03-19T15:20:19;17.00;;;8.60;;
68577;SDS011;61668;45.388;11.784;2023-03-19T15:22:54;16.90;;;9.00;;
68577;SDS011;61668;45.388;11.784;2023-03-19T15:25:21;16.90;;;8.80;;
68577;SDS011;61668;45.388;11.784;2023-03-19T15:28:04;16.70;;;8.60;;
68577;SDS011;61668;45.388;11.784;2023-03-19T15:30:35;15.10;;;8.10;;
68577;SDS011;61668;45.388;11.784;2023-03-19T15:33:01;16.60;;;7.70;;
68577;SDS011;61668;45.388;11.784;2023-03-19T15:35:33;15.60;;;7.70;;
68577;SDS011;61668;45.388;11.784;2023-03-19T15:38:05;17.30;;;8.50;;
68577;SDS011;61668;45.388;11.784;2023-03-19T15:40:32;17.60;;;10.00;;
68577;SDS011;61668;45.388;11.784;2023-03-19T15:43:00;15.70;;;8.10;;
68577;SDS011;61668;45.388;11.784;2023-03-19T15:45:28;16.90;;;9.40;;
68577;SDS011;61668;45.388;11.784;2023-03-19T15:50:55;14.10;;;6.70;;
68577;SDS011;61668;45.388;11.784;2023-03-19T15:53:28;14.10;;;7.30;;
68577;SDS011;61668;45.388;11.784;2023-03-19T15:55:56;15.70;;;6.70;;
68577;SDS011;61668;45.388;11.784;2023-03-19T15:58:26;13.20;;;6.40;;
68577;SDS011;61668;45.388;11.784;2023-03-19T16:00:54;12.70;;;5.40;;
68577;SDS011;61668;45.388;11.784;2023-03-19T16:03:37;11.20;;;4.50;;
68577;SDS011;61668;45.388;11.784;2023-03-19T16:06:21;10.90;;;3.90;;
68577;SDS011;61668;45.388;11.784;2023-03-19T16:08:51;13.60;;;6.70;;
68577;SDS011;61668;45.388;11.784;2023-03-19T16:11:28;13.00;;;5.50;;
68577;SDS011;61668;45.388;11.784;2023-03-19T16:14:20;11.50;;;4.70;;
68577;SDS011;61668;45.388;11.784;2023-03-19T16:17:02;15.50;;;6.10;;
68577;SDS011;61668;45.388;11.784;2023-03-19T16:19:37;11.40;;;5.10;;